createdAt,value
2022-07-29T00:01:56.783Z,16.79
2022-07-29T00:06:58.349Z,16.86
2022-07-29T00:12:01.778Z,16.75
2022-07-29T00:17:03.605Z,16.67
2022-07-29T00:22:05.245Z,16.53
2022-07-29T00:27:06.854Z,16.30
2022-07-29T00:32:08.489Z,16.24
2022-07-29T00:37:10.051Z,16.39
2022-07-29T00:42:11.894Z,16.70
2022-07-29T00:47:13.706Z,16.49
2022-07-29T00:52:17.220Z,16.19
2022-07-29T00:57:19.123Z,16.37
2022-07-29T01:02:20.754Z,16.29
2022-07-29T01:07:22.479Z,16.28
2022-07-29T01:12:26.737Z,16.04
2022-07-29T01:18:06.654Z,16.11
2022-07-29T01:23:21.972Z,15.75
2022-07-29T01:28:47.948Z,15.67
2022-07-29T01:33:58.702Z,15.67
2022-07-29T01:39:08.628Z,15.63
2022-07-29T01:44:18.684Z,15.62
2022-07-29T01:49:28.725Z,15.57
2022-07-29T01:54:36.276Z,15.42
2022-07-29T01:59:39.514Z,15.45
2022-07-29T02:04:43.850Z,15.62
2022-07-29T02:09:48.250Z,15.86
2022-07-29T02:14:53.154Z,15.79
2022-07-29T02:19:58.372Z,15.45
2022-07-29T02:25:01.263Z,15.44
2022-07-29T02:30:07.557Z,15.38
2022-07-29T02:35:10.621Z,15.50
2022-07-29T02:40:16.149Z,15.56
2022-07-29T02:45:18.108Z,15.47
2022-07-29T02:50:33.630Z,15.54
2022-07-29T02:55:43.204Z,15.63
2022-07-29T03:00:48.616Z,15.77
2022-07-29T03:05:50.621Z,15.93
2022-07-29T03:10:53.113Z,15.73
2022-07-29T03:15:55.113Z,15.56
2022-07-29T03:20:56.835Z,15.51
2022-07-29T03:25:58.506Z,15.58
2022-07-29T03:31:00.207Z,15.53
2022-07-29T03:36:03.422Z,15.68
2022-07-29T03:41:10.452Z,15.57
2022-07-29T03:46:14.515Z,15.63
2022-07-29T03:51:16.271Z,15.64
2022-07-29T03:56:21.542Z,15.67
2022-07-29T04:01:23.661Z,15.55
2022-07-29T04:06:26.698Z,15.52
2022-07-29T04:11:28.448Z,15.83
2022-07-29T04:16:30.302Z,16.06
2022-07-29T04:21:32.004Z,15.82
2022-07-29T04:26:34.190Z,16.00
2022-07-29T04:31:35.955Z,15.94
2022-07-29T04:36:37.902Z,16.31
2022-07-29T04:41:39.489Z,16.39
2022-07-29T04:46:41.307Z,16.37
2022-07-29T04:51:42.958Z,16.53
2022-07-29T04:56:44.623Z,16.26
2022-07-29T05:01:46.304Z,16.42
2022-07-29T05:06:48.005Z,16.63
2022-07-29T05:11:49.679Z,16.81
2022-07-29T05:16:52.115Z,17.13
2022-07-29T05:21:53.719Z,16.97
2022-07-29T05:26:55.349Z,17.11
2022-07-29T05:31:57.025Z,17.15
2022-07-29T05:36:58.972Z,17.15
2022-07-29T05:42:00.577Z,17.09
2022-07-29T05:47:02.135Z,17.73
2022-07-29T05:52:04.198Z,17.81
2022-07-29T05:57:06.373Z,18.19
2022-07-29T06:02:08.019Z,18.17
2022-07-29T06:07:09.703Z,18.41
2022-07-29T06:12:11.380Z,18.52
2022-07-29T06:17:13.043Z,18.85
2022-07-29T06:22:17.130Z,18.89
2022-07-29T06:27:18.710Z,19.32
2022-07-29T06:32:20.488Z,19.77
2022-07-29T06:37:24.569Z,19.77
2022-07-29T06:42:27.741Z,19.80
2022-07-29T06:47:29.380Z,19.94
2022-07-29T06:52:30.988Z,20.16
2022-07-29T06:57:32.949Z,20.41
2022-07-29T07:02:34.586Z,20.25
2022-07-29T07:07:36.392Z,20.51
2022-07-29T07:12:38.013Z,20.76
2022-07-29T07:17:39.671Z,20.36
2022-07-29T07:22:41.268Z,20.54
2022-07-29T07:27:46.136Z,20.84
2022-07-29T07:32:47.869Z,20.70
2022-07-29T07:37:49.508Z,20.84
2022-07-29T07:42:51.296Z,21.06
2022-07-29T07:47:52.892Z,21.32
2022-07-29T07:52:58.864Z,21.03
2022-07-29T07:58:00.696Z,21.48
2022-07-29T08:03:02.673Z,21.36
2022-07-29T08:08:04.582Z,22.26
2022-07-29T08:13:11.865Z,22.47
2022-07-29T08:18:14.035Z,22.53
2022-07-29T08:23:15.644Z,22.99
2022-07-29T08:28:18.414Z,22.94
2022-07-29T08:33:20.165Z,23.95
2022-07-29T08:38:22.076Z,24.56
2022-07-29T08:43:24.039Z,24.64
2022-07-29T08:48:25.846Z,24.14
2022-07-29T08:53:29.154Z,24.81
2022-07-29T08:58:36.910Z,25.44
2022-07-29T09:03:41.716Z,25.90
2022-07-29T09:08:43.865Z,26.53
2022-07-29T09:13:45.600Z,27.10
2022-07-29T09:18:47.384Z,27.26
2022-07-29T09:24:12.758Z,27.61
2022-07-29T09:29:15.578Z,27.42
2022-07-29T09:34:29.523Z,27.35
2022-07-29T09:39:45.137Z,27.44
2022-07-29T09:44:50.323Z,27.31
2022-07-29T09:49:59.141Z,27.74
2022-07-29T09:55:08.488Z,27.98
2022-07-29T10:00:15.728Z,28.48
2022-07-29T10:05:25.559Z,28.97
2022-07-29T10:10:32.901Z,29.52
2022-07-29T10:15:41.828Z,30.29
2022-07-29T10:20:43.639Z,30.83
2022-07-29T10:25:46.958Z,31.08
2022-07-29T10:30:51.457Z,30.44
2022-07-29T10:36:04.534Z,30.79
2022-07-29T10:46:57.522Z,31.21
2022-07-29T10:52:06.357Z,31.18
2022-07-29T10:57:25.761Z,30.22
2022-07-29T11:02:41.293Z,30.89
2022-07-29T11:08:19.945Z,30.76
2022-07-29T11:13:44.624Z,31.30
2022-07-29T11:19:13.871Z,32.26
2022-07-29T11:24:28.559Z,31.96
2022-07-29T11:29:33.130Z,31.75
2022-07-29T11:34:42.422Z,31.78
2022-07-29T11:39:45.565Z,32.30
2022-07-29T11:45:41.056Z,32.08
2022-07-29T11:50:37.710Z,32.60
2022-07-29T12:01:07.863Z,32.18
2022-07-29T12:06:14.974Z,32.10
2022-07-29T12:11:21.347Z,31.14
2022-07-29T12:16:25.743Z,30.60
2022-07-29T12:21:53.832Z,30.49
2022-07-29T12:27:00.208Z,31.50
2022-07-29T12:32:02.091Z,31.53
2022-07-29T12:37:04.702Z,30.97
2022-07-29T12:42:18.456Z,31.36
2022-07-29T12:47:21.105Z,31.33
2022-07-29T12:52:30.139Z,30.24
2022-07-29T12:57:32.991Z,29.96
2022-07-29T13:02:35.690Z,30.10
2022-07-29T13:07:55.820Z,30.04
2022-07-29T13:13:10.510Z,30.22
2022-07-29T13:18:32.423Z,30.18
2022-07-29T13:23:38.419Z,30.57
2022-07-29T13:28:40.998Z,30.17
2022-07-29T13:33:46.039Z,30.15
2022-07-29T13:38:47.674Z,30.52
2022-07-29T13:43:50.116Z,30.46
2022-07-29T13:48:51.923Z,30.63
2022-07-29T13:53:53.597Z,30.38
2022-07-29T13:58:55.330Z,30.64
2022-07-29T14:03:57.174Z,30.82
2022-07-29T14:08:59.173Z,30.83
2022-07-29T14:14:00.793Z,30.62
2022-07-29T14:19:02.847Z,30.55
2022-07-29T14:24:05.089Z,30.27
2022-07-29T14:29:19.318Z,30.25
2022-07-29T14:34:21.166Z,29.75
2022-07-29T14:39:26.360Z,29.70
2022-07-29T14:44:33.702Z,29.51
2022-07-29T14:49:36.382Z,29.39
2022-07-29T14:54:38.035Z,29.20
2022-07-29T14:59:39.642Z,29.06
2022-07-29T15:04:41.391Z,29.08
2022-07-29T15:09:49.831Z,29.21
2022-07-29T15:14:51.829Z,29.14
2022-07-29T15:19:53.502Z,29.27
2022-07-29T15:24:55.129Z,29.14
2022-07-29T15:29:56.780Z,29.43
2022-07-29T15:34:58.464Z,29.48
2022-07-29T15:40:00.465Z,29.26
2022-07-29T15:45:03.884Z,29.12
2022-07-29T15:50:12.842Z,29.03
2022-07-29T15:55:15.688Z,29.03
2022-07-29T16:00:18.091Z,28.90
2022-07-29T16:05:19.946Z,28.58
2022-07-29T16:10:21.687Z,28.50
2022-07-29T16:15:23.397Z,28.67
2022-07-29T16:20:25.434Z,28.53
2022-07-29T16:25:50.189Z,28.25
2022-07-29T16:30:51.262Z,27.99
2022-07-29T16:35:53.199Z,27.94
2022-07-29T16:40:54.845Z,27.84
2022-07-29T16:45:56.546Z,27.80
2022-07-29T16:50:58.222Z,27.79
2022-07-29T16:55:59.842Z,27.79
2022-07-29T17:01:01.642Z,27.74
2022-07-29T17:06:03.487Z,27.75
2022-07-29T17:11:05.105Z,27.63
2022-07-29T17:16:06.755Z,27.79
2022-07-29T17:21:08.323Z,27.56
2022-07-29T17:26:10.023Z,27.79
2022-07-29T17:31:12.019Z,27.69
2022-07-29T17:36:25.473Z,27.69
2022-07-29T17:41:27.628Z,27.66
2022-07-29T17:46:29.641Z,27.67
2022-07-29T17:51:31.315Z,27.31
2022-07-29T17:56:33.071Z,27.42
2022-07-29T18:01:35.101Z,27.21
2022-07-29T18:06:37.266Z,27.16
2022-07-29T18:11:38.879Z,27.09
2022-07-29T18:16:41.000Z,26.49
2022-07-29T18:21:54.568Z,26.18
2022-07-29T18:26:57.288Z,25.99
2022-07-29T18:31:59.896Z,25.92
2022-07-29T18:37:01.723Z,25.61
2022-07-29T18:42:04.404Z,25.60
2022-07-29T18:47:06.177Z,25.38
2022-07-29T18:52:08.280Z,25.12
2022-07-29T18:57:55.051Z,25.03
2022-07-29T19:02:31.770Z,24.77
2022-07-29T19:07:33.747Z,24.69
2022-07-29T19:12:35.431Z,24.60
2022-07-29T19:17:37.071Z,24.63
2022-07-29T19:22:38.792Z,24.51
2022-07-29T19:27:41.225Z,24.38
2022-07-29T19:32:42.818Z,24.34
2022-07-29T19:37:44.552Z,24.55
2022-07-29T19:42:48.229Z,24.46
2022-07-29T19:47:50.753Z,24.19
2022-07-29T19:52:53.022Z,24.23
2022-07-29T19:57:54.841Z,24.31
2022-07-29T20:02:57.410Z,24.16
2022-07-29T20:07:59.447Z,24.07
2022-07-29T20:13:01.034Z,23.87
2022-07-29T20:18:02.703Z,23.81
2022-07-29T20:23:04.329Z,23.81
2022-07-29T20:28:06.129Z,23.71
2022-07-29T20:33:08.143Z,23.78
2022-07-29T20:38:09.816Z,23.78
2022-07-29T20:43:11.475Z,23.88
2022-07-29T20:48:13.873Z,23.67
2022-07-29T20:53:16.714Z,23.80
2022-07-29T20:58:19.740Z,23.73
2022-07-29T21:03:21.322Z,23.74
2022-07-29T21:08:22.977Z,23.82
2022-07-29T21:13:25.541Z,23.64
2022-07-29T21:18:30.226Z,23.52
2022-07-29T21:23:32.355Z,23.25
2022-07-29T21:28:38.506Z,23.15
2022-07-29T21:33:42.006Z,23.20
2022-07-29T21:38:43.627Z,23.13
2022-07-29T21:43:46.139Z,23.11
2022-07-29T21:48:47.798Z,23.17
2022-07-29T21:53:50.578Z,23.19
2022-07-29T21:58:55.833Z,22.97
2022-07-29T22:03:57.677Z,22.85
2022-07-29T22:08:59.283Z,22.96
2022-07-29T22:14:00.922Z,22.96
2022-07-29T22:19:03.917Z,22.62
2022-07-29T22:24:06.026Z,22.53
2022-07-29T22:29:08.562Z,22.69
2022-07-29T22:34:13.148Z,22.54
2022-07-29T22:39:16.160Z,22.47
2022-07-29T22:44:17.972Z,22.52
2022-07-29T22:49:19.681Z,22.48
2022-07-29T22:54:21.334Z,22.28
2022-07-29T22:59:22.962Z,22.09
2022-07-29T23:04:25.055Z,22.12
2022-07-29T23:09:26.682Z,22.10
2022-07-29T23:14:28.239Z,22.08
2022-07-29T23:19:29.924Z,22.33
2022-07-29T23:24:31.520Z,22.35
2022-07-29T23:29:36.661Z,22.28
2022-07-29T23:34:38.544Z,22.29
2022-07-29T23:39:40.223Z,22.21
2022-07-29T23:44:41.811Z,22.06
2022-07-29T23:49:43.647Z,21.70
2022-07-29T23:54:45.400Z,21.50
2022-07-29T23:59:47.066Z,21.19
